createdAt,value
2018-01-28T00:02:27.841Z,4.77
2018-01-28T00:04:55.346Z,3.20
2018-01-28T00:07:22.766Z,2.90
2018-01-28T00:09:50.341Z,3.80
2018-01-28T00:12:17.761Z,4.27
2018-01-28T00:14:45.201Z,3.20
2018-01-28T00:17:12.625Z,5.47
2018-01-28T00:19:40.174Z,4.20
2018-01-28T00:22:07.625Z,2.80
2018-01-28T00:24:35.094Z,2.93
2018-01-28T00:27:02.521Z,4.87
2018-01-28T00:29:29.961Z,3.30
2018-01-28T00:31:57.381Z,9.23
2018-01-28T00:34:24.974Z,4.30
2018-01-28T00:36:52.558Z,2.93
2018-01-28T00:39:20.124Z,2.90
2018-01-28T00:41:47.606Z,3.53
2018-01-28T00:44:15.251Z,3.03
2018-01-28T00:46:42.729Z,4.57
2018-01-28T00:49:10.194Z,3.67
2018-01-28T00:51:37.641Z,4.50
2018-01-28T00:54:05.111Z,3.83
2018-01-28T00:56:32.662Z,4.47
2018-01-28T00:59:00.305Z,3.83
2018-01-28T01:01:27.730Z,3.50
2018-01-28T01:03:56.258Z,4.63
2018-01-28T01:06:24.021Z,5.13
2018-01-28T01:08:51.457Z,4.60
2018-01-28T01:11:18.885Z,5.43
2018-01-28T01:13:46.309Z,5.40
2018-01-28T01:16:13.849Z,4.73
2018-01-28T01:18:41.313Z,5.70
2018-01-28T01:21:08.772Z,5.80
2018-01-28T01:23:36.229Z,6.70
2018-01-28T01:26:03.681Z,6.63
2018-01-28T01:28:31.105Z,6.07
2018-01-28T01:30:58.540Z,5.50
2018-01-28T01:33:26.986Z,6.93
2018-01-28T01:35:54.626Z,7.47
2018-01-28T01:38:22.105Z,7.27
2018-01-28T01:40:49.608Z,8.10
2018-01-28T01:43:17.126Z,7.50
2018-01-28T01:45:44.592Z,6.90
2018-01-28T01:48:12.341Z,4.80
2018-01-28T01:50:39.810Z,6.70
2018-01-28T01:53:07.565Z,7.83
2018-01-28T01:55:35.211Z,5.77
2018-01-28T01:58:02.722Z,5.90
2018-01-28T02:00:30.250Z,4.83
2018-01-28T02:02:57.882Z,6.03
2018-01-28T02:05:25.381Z,3.80
2018-01-28T02:07:52.926Z,3.70
2018-01-28T02:10:20.578Z,4.63
2018-01-28T02:12:48.080Z,5.10
2018-01-28T02:15:15.521Z,4.93
2018-01-28T02:17:42.968Z,5.00
2018-01-28T02:20:10.413Z,5.80
2018-01-28T02:22:37.989Z,11.03
2018-01-28T02:25:05.631Z,5.43
2018-01-28T02:27:33.110Z,5.50
2018-01-28T02:30:00.549Z,6.37
2018-01-28T02:32:28.021Z,4.97
2018-01-28T02:34:55.454Z,5.93
2018-01-28T02:37:22.977Z,5.97
2018-01-28T02:39:50.497Z,5.10
2018-01-28T02:42:17.953Z,5.80
2018-01-28T02:44:45.603Z,4.97
2018-01-28T02:47:13.077Z,4.60
2018-01-28T02:49:40.534Z,5.90
2018-01-28T02:52:08.002Z,6.40
2018-01-28T02:54:35.503Z,5.17
2018-01-28T02:57:02.886Z,6.90
2018-01-28T02:59:30.334Z,4.53
2018-01-28T03:01:57.893Z,5.53
2018-01-28T03:04:25.317Z,5.20
2018-01-28T03:06:52.842Z,6.20
2018-01-28T03:09:20.488Z,8.37
2018-01-28T03:11:48.061Z,5.37
2018-01-28T03:14:15.825Z,6.70
2018-01-28T03:16:43.262Z,6.47
2018-01-28T03:19:10.686Z,6.87
2018-01-28T03:21:38.121Z,5.80
2018-01-28T03:24:05.562Z,5.90
2018-01-28T03:26:33.057Z,6.00
2018-01-28T03:29:00.490Z,5.63
2018-01-28T03:31:27.946Z,5.63
2018-01-28T03:33:55.390Z,7.40
2018-01-28T03:36:22.857Z,5.80
2018-01-28T03:38:50.288Z,6.67
2018-01-28T03:41:17.778Z,7.20
2018-01-28T03:43:45.376Z,7.13
2018-01-28T03:46:12.997Z,6.17
2018-01-28T03:48:40.545Z,5.53
2018-01-28T03:51:07.988Z,6.30
2018-01-28T03:53:35.462Z,6.00
2018-01-28T03:56:02.889Z,6.30
2018-01-28T03:58:30.306Z,6.33
2018-01-28T04:00:57.737Z,7.10
2018-01-28T04:03:25.290Z,5.60
2018-01-28T04:05:52.709Z,4.57
2018-01-28T04:08:20.141Z,6.00
2018-01-28T04:10:47.661Z,6.90
2018-01-28T04:13:15.197Z,6.00
2018-01-28T04:15:42.884Z,5.83
2018-01-28T04:18:10.653Z,6.40
2018-01-28T04:20:38.282Z,6.10
2018-01-28T04:23:05.877Z,6.60
2018-01-28T04:25:33.640Z,6.87
2018-01-28T04:28:01.289Z,5.93
2018-01-28T04:30:28.865Z,5.13
2018-01-28T04:32:56.303Z,6.23
2018-01-28T04:35:23.726Z,6.40
2018-01-28T04:37:51.237Z,6.47
2018-01-28T04:40:18.694Z,4.80
2018-01-28T04:42:46.463Z,6.47
2018-01-28T04:45:13.921Z,6.30
2018-01-28T04:47:41.685Z,5.70
2018-01-28T04:50:09.322Z,6.47
2018-01-28T04:52:36.905Z,6.60
2018-01-28T04:55:04.338Z,6.00
2018-01-28T04:57:31.773Z,5.87
2018-01-28T04:59:59.197Z,5.23
2018-01-28T05:02:26.642Z,6.20
2018-01-28T05:04:54.069Z,5.00
2018-01-28T05:07:21.648Z,6.87
2018-01-28T05:09:49.073Z,5.97
2018-01-28T05:12:16.513Z,6.30
2018-01-28T05:14:43.934Z,6.40
2018-01-28T05:17:11.486Z,6.43
2018-01-28T05:19:38.916Z,8.00
2018-01-28T05:22:06.338Z,6.13
2018-01-28T05:24:33.777Z,6.73
2018-01-28T05:27:01.208Z,6.60
2018-01-28T05:29:28.773Z,5.63
2018-01-28T05:31:56.406Z,7.33
2018-01-28T05:34:24.001Z,6.10
2018-01-28T05:36:51.429Z,6.57
2018-01-28T05:39:18.861Z,7.00
2018-01-28T05:41:46.374Z,5.60
2018-01-28T05:44:14.136Z,4.90
2018-01-28T05:46:41.593Z,6.27
2018-01-28T05:49:09.238Z,7.03
2018-01-28T05:51:36.714Z,7.20
2018-01-28T05:54:04.277Z,5.90
2018-01-28T05:56:31.907Z,6.43
2018-01-28T05:59:00.113Z,8.67
2018-01-28T06:01:27.761Z,7.30
2018-01-28T06:03:55.251Z,8.27
2018-01-28T06:06:22.793Z,7.37
2018-01-28T06:08:50.223Z,7.90
2018-01-28T06:11:17.649Z,8.13
2018-01-28T06:13:46.089Z,8.07
2018-01-28T06:16:13.546Z,7.20
2018-01-28T06:18:41.005Z,7.77
2018-01-28T06:21:08.434Z,8.83
2018-01-28T06:23:35.869Z,9.43
2018-01-28T06:26:03.290Z,9.20
2018-01-28T06:28:30.837Z,8.83
2018-01-28T06:30:58.273Z,9.87
2018-01-28T06:33:25.749Z,8.33
2018-01-28T06:35:53.169Z,9.17
2018-01-28T06:38:20.664Z,8.23
2018-01-28T06:40:48.431Z,8.60
2018-01-28T06:43:16.065Z,7.87
2018-01-28T06:45:43.566Z,7.87
2018-01-28T06:48:11.113Z,6.70
2018-01-28T06:50:38.550Z,7.50
2018-01-28T06:53:05.973Z,10.83
2018-01-28T06:55:33.406Z,7.53
2018-01-28T06:58:00.995Z,8.17
2018-01-28T07:00:28.587Z,8.30
2018-01-28T07:02:56.066Z,9.63
2018-01-28T07:05:23.625Z,9.17
2018-01-28T07:07:51.081Z,8.40
2018-01-28T07:10:18.542Z,7.90
2018-01-28T07:12:46.002Z,9.10
2018-01-28T07:15:13.443Z,8.43
2018-01-28T07:17:40.865Z,10.43
2018-01-28T07:20:08.369Z,9.83
2018-01-28T07:22:36.018Z,10.10
2018-01-28T07:25:03.594Z,8.70
2018-01-28T07:27:31.028Z,8.70
2018-01-28T07:29:58.450Z,9.10
2018-01-28T07:32:25.877Z,10.03
2018-01-28T07:34:53.410Z,8.87
2018-01-28T07:37:21.805Z,8.17
2018-01-28T07:39:49.247Z,8.63
2018-01-28T07:42:16.665Z,8.97
2018-01-28T07:44:44.181Z,10.17
2018-01-28T07:47:11.814Z,8.33
2018-01-28T07:49:39.401Z,9.50
2018-01-28T07:52:06.837Z,10.27
2018-01-28T07:54:34.265Z,9.33
2018-01-28T07:57:01.691Z,9.37
2018-01-28T07:59:29.129Z,9.80
2018-01-28T08:01:56.590Z,9.40
2018-01-28T08:04:24.045Z,9.87
2018-01-28T08:06:51.474Z,9.27
2018-01-28T08:09:18.901Z,10.23
2018-01-28T08:11:52.089Z,10.73
2018-01-28T08:14:21.666Z,11.20
2018-01-28T08:16:49.326Z,10.00
2018-01-28T08:19:16.781Z,11.20
2018-01-28T08:21:44.298Z,11.33
2018-01-28T08:24:11.713Z,12.37
2018-01-28T08:26:41.614Z,11.37
2018-01-28T08:29:26.697Z,13.47
2018-01-28T08:31:54.125Z,11.37
2018-01-28T08:34:21.546Z,9.93
2018-01-28T08:36:48.973Z,11.30
2018-01-28T08:39:16.401Z,10.07
2018-01-28T08:41:43.869Z,12.93
2018-01-28T08:44:11.301Z,10.87
2018-01-28T08:46:38.725Z,10.57
2018-01-28T08:49:06.346Z,11.00
2018-01-28T08:51:34.302Z,10.43
2018-01-28T08:54:01.759Z,11.17
2018-01-28T08:56:29.333Z,9.83
2018-01-28T08:58:56.778Z,11.93
2018-01-28T09:01:24.186Z,12.70
2018-01-28T09:03:51.614Z,12.60
2018-01-28T09:06:19.065Z,12.00
2018-01-28T09:08:46.502Z,11.00
2018-01-28T09:11:13.993Z,11.60
2018-01-28T09:13:41.469Z,10.10
2018-01-28T09:16:08.897Z,11.70
2018-01-28T09:18:36.461Z,12.07
2018-01-28T09:21:04.103Z,12.67
2018-01-28T09:23:31.586Z,13.00
2018-01-28T09:25:59.326Z,11.40
2018-01-28T09:28:26.905Z,13.03
2018-01-28T09:30:54.361Z,12.30
2018-01-28T09:33:21.857Z,12.50
2018-01-28T09:35:49.586Z,12.93
2018-01-28T09:38:17.353Z,12.30
2018-01-28T09:40:44.996Z,12.73
2018-01-28T09:43:12.401Z,10.80
2018-01-28T09:45:40.026Z,13.03
2018-01-28T09:48:07.681Z,13.73
2018-01-28T09:50:35.249Z,13.93
2018-01-28T09:53:02.679Z,14.10
2018-01-28T09:55:30.104Z,12.20
2018-01-28T09:57:58.547Z,12.23
2018-01-28T10:00:26.006Z,12.17
2018-01-28T10:02:53.638Z,11.83
2018-01-28T10:05:21.093Z,12.67
2018-01-28T10:07:48.683Z,10.70
2018-01-28T10:10:16.449Z,14.50
2018-01-28T10:12:43.878Z,11.77
2018-01-28T10:15:11.365Z,11.70
2018-01-28T10:17:39.014Z,12.27
2018-01-28T10:20:06.590Z,11.77
2018-01-28T10:22:34.221Z,12.07
2018-01-28T10:25:01.743Z,12.70
2018-01-28T10:27:29.302Z,12.23
2018-01-28T10:29:56.902Z,11.40
2018-01-28T10:32:24.494Z,13.37
2018-01-28T10:34:52.004Z,11.53
2018-01-28T10:37:19.378Z,11.17
2018-01-28T10:39:46.805Z,12.10
2018-01-28T10:42:14.238Z,10.20
2018-01-28T10:44:41.785Z,10.63
2018-01-28T10:47:09.223Z,11.57
2018-01-28T10:49:36.650Z,10.30
2018-01-28T10:52:04.157Z,11.60
2018-01-28T10:54:31.619Z,10.10
2018-01-28T10:56:59.307Z,9.13
2018-01-28T10:59:26.837Z,9.07
2018-01-28T11:01:54.602Z,9.30
2018-01-28T11:04:22.034Z,10.90
2018-01-28T11:06:49.458Z,10.00
2018-01-28T11:09:16.977Z,9.97
2018-01-28T11:11:44.397Z,9.07
2018-01-28T11:14:11.821Z,9.30
2018-01-28T11:16:39.245Z,8.73
2018-01-28T11:19:06.710Z,9.53
2018-01-28T11:21:34.170Z,9.80
2018-01-28T11:24:01.722Z,9.53
2018-01-28T11:26:29.357Z,9.13
2018-01-28T11:28:56.882Z,7.97
2018-01-28T11:31:24.405Z,8.50
2018-01-28T11:33:51.865Z,8.07
2018-01-28T11:36:19.294Z,9.07
2018-01-28T11:38:46.718Z,8.47
2018-01-28T11:41:14.244Z,9.33
2018-01-28T11:43:41.666Z,8.40
2018-01-28T11:46:09.153Z,8.87
2018-01-28T11:48:36.782Z,7.20
2018-01-28T11:51:04.245Z,6.90
2018-01-28T11:53:31.706Z,9.10
2018-01-28T11:55:59.193Z,7.63
2018-01-28T11:58:26.746Z,10.00
2018-01-28T12:00:54.173Z,9.53
2018-01-28T12:03:21.667Z,7.77
2018-01-28T12:05:49.429Z,7.70
2018-01-28T12:08:16.857Z,7.67
2018-01-28T12:10:44.392Z,8.60
2018-01-28T12:13:11.776Z,7.30
2018-01-28T12:15:39.197Z,8.60
2018-01-28T12:18:06.627Z,7.43
2018-01-28T12:20:34.175Z,8.03
2018-01-28T12:23:01.708Z,7.93
2018-01-28T12:25:29.133Z,8.67
2018-01-28T12:27:56.758Z,7.80
2018-01-28T12:30:24.213Z,7.67
2018-01-28T12:32:51.710Z,7.70
2018-01-28T12:35:19.230Z,8.83
2018-01-28T12:37:46.866Z,6.90
2018-01-28T12:40:14.295Z,6.93
2018-01-28T12:42:42.525Z,8.23
2018-01-28T12:45:10.157Z,7.50
2018-01-28T12:47:37.751Z,7.20
2018-01-28T12:50:05.209Z,7.87
2018-01-28T12:52:32.838Z,9.10
2018-01-28T12:55:00.273Z,7.37
2018-01-28T12:57:27.891Z,7.10
2018-01-28T12:59:55.313Z,7.27
2018-01-28T13:02:22.742Z,7.70
2018-01-28T13:04:50.173Z,7.63
2018-01-28T13:07:17.601Z,7.20
2018-01-28T13:09:45.185Z,6.53
2018-01-28T13:12:12.612Z,7.20
2018-01-28T13:14:40.034Z,6.20
2018-01-28T13:17:07.489Z,6.03
2018-01-28T13:19:34.917Z,6.40
2018-01-28T13:22:02.369Z,6.67
2018-01-28T13:24:29.830Z,5.83
2018-01-28T13:26:57.285Z,5.40
2018-01-28T13:29:24.854Z,4.50
2018-01-28T13:31:52.271Z,5.00
2018-01-28T13:34:19.701Z,5.20
2018-01-28T13:36:47.217Z,5.70
2018-01-28T13:39:14.850Z,4.90
2018-01-28T13:41:42.440Z,4.80
2018-01-28T13:44:10.070Z,7.50
2018-01-28T13:46:37.657Z,5.80
2018-01-28T13:49:05.121Z,5.70
2018-01-28T13:51:32.549Z,4.63
2018-01-28T13:54:00.038Z,5.63
2018-01-28T13:56:27.665Z,4.90
2018-01-28T13:58:55.161Z,6.60
2018-01-28T14:01:22.597Z,6.07
2018-01-28T14:03:50.030Z,5.70
2018-01-28T14:06:18.245Z,5.53
2018-01-28T14:08:45.673Z,5.60
2018-01-28T14:11:13.405Z,5.90
2018-01-28T14:13:40.845Z,5.23
2018-01-28T14:16:08.385Z,7.03
2018-01-28T14:18:35.817Z,7.17
2018-01-28T14:21:03.241Z,5.50
2018-01-28T14:23:30.762Z,6.00
2018-01-28T14:25:58.215Z,5.53
2018-01-28T14:28:25.645Z,5.53
2018-01-28T14:30:53.073Z,6.43
2018-01-28T14:33:20.501Z,6.53
2018-01-28T14:35:47.934Z,5.80
2018-01-28T14:38:15.375Z,6.10
2018-01-28T14:40:42.866Z,6.73
2018-01-28T14:43:10.586Z,5.80
2018-01-28T14:45:38.761Z,5.93
2018-01-28T14:48:06.190Z,5.50
2018-01-28T14:50:33.717Z,6.30
2018-01-28T14:53:01.173Z,7.03
2018-01-28T14:55:28.837Z,5.53
2018-01-28T14:57:56.330Z,6.73
2018-01-28T15:00:23.758Z,6.07
2018-01-28T15:02:51.195Z,6.17
2018-01-28T15:05:18.770Z,6.20
2018-01-28T15:07:46.534Z,6.93
2018-01-28T15:10:14.185Z,6.50
2018-01-28T15:12:41.696Z,6.90
2018-01-28T15:15:09.153Z,5.60
2018-01-28T15:17:36.613Z,6.00
2018-01-28T15:20:04.134Z,6.60
2018-01-28T15:22:31.593Z,6.03
2018-01-28T15:24:59.022Z,6.13
2018-01-28T15:27:26.445Z,9.80
2018-01-28T15:29:53.874Z,6.10
2018-01-28T15:32:21.425Z,5.53
2018-01-28T15:34:48.882Z,5.20
2018-01-28T15:37:16.645Z,5.80
2018-01-28T15:39:44.410Z,6.27
2018-01-28T15:42:12.173Z,4.87
2018-01-28T15:44:39.942Z,6.13
2018-01-28T15:47:07.369Z,4.67
2018-01-28T15:49:35.777Z,6.30
2018-01-28T15:52:03.209Z,5.00
2018-01-28T15:54:30.636Z,7.40
2018-01-28T15:56:58.069Z,5.70
2018-01-28T15:59:25.613Z,8.17
2018-01-28T16:01:53.042Z,5.10
2018-01-28T16:04:20.469Z,5.93
2018-01-28T16:06:47.903Z,5.33
2018-01-28T16:09:15.445Z,4.97
2018-01-28T16:11:42.874Z,5.83
2018-01-28T16:14:10.301Z,5.93
2018-01-28T16:16:37.813Z,5.27
2018-01-28T16:19:05.464Z,5.40
2018-01-28T16:21:33.043Z,5.40
2018-01-28T16:24:00.503Z,5.93
2018-01-28T16:26:27.933Z,5.23
2018-01-28T16:28:55.357Z,6.20
2018-01-28T16:31:22.785Z,5.50
2018-01-28T16:33:50.229Z,5.03
2018-01-28T16:36:17.693Z,8.00
2018-01-28T16:38:45.252Z,6.30
2018-01-28T16:41:12.677Z,6.90
2018-01-28T16:43:40.107Z,6.30
2018-01-28T16:46:07.621Z,6.33
2018-01-28T16:48:35.046Z,6.63
2018-01-28T16:51:02.537Z,6.67
2018-01-28T16:53:29.967Z,5.83
2018-01-28T16:55:57.400Z,5.53
2018-01-28T16:58:24.817Z,6.13
2018-01-28T17:00:52.253Z,5.30
2018-01-28T17:03:19.822Z,5.83
2018-01-28T17:05:47.472Z,6.33
2018-01-28T17:08:14.886Z,5.83
2018-01-28T17:10:42.309Z,7.10
2018-01-28T17:13:09.861Z,6.30
2018-01-28T17:15:37.421Z,6.40
2018-01-28T17:18:04.854Z,7.10
2018-01-28T17:20:32.333Z,6.17
2018-01-28T17:23:00.294Z,6.40
2018-01-28T17:25:27.810Z,5.57
2018-01-28T17:27:56.024Z,6.83
2018-01-28T17:30:23.610Z,6.27
2018-01-28T17:32:51.166Z,7.20
2018-01-28T17:35:38.323Z,7.77
2018-01-28T17:38:05.705Z,7.17
2018-01-28T17:40:33.133Z,7.33
2018-01-28T17:43:00.602Z,7.20
2018-01-28T17:45:28.035Z,6.90
2018-01-28T17:47:55.521Z,8.33
2018-01-28T17:50:22.949Z,7.53
2018-01-28T17:52:50.381Z,8.40
2018-01-28T17:55:17.812Z,7.93
2018-01-28T17:57:45.309Z,8.20
2018-01-28T18:00:12.857Z,8.53
2018-01-28T18:02:40.508Z,7.17
2018-01-28T18:05:08.082Z,9.10
2018-01-28T18:07:36.278Z,8.40
2018-01-28T18:10:03.789Z,9.17
2018-01-28T18:12:31.377Z,7.80
2018-01-28T18:14:59.015Z,9.30
2018-01-28T18:17:26.478Z,10.10
2018-01-28T18:19:53.993Z,9.47
2018-01-28T18:22:21.430Z,10.37
2018-01-28T18:24:48.973Z,9.87
2018-01-28T18:27:16.609Z,9.10
2018-01-28T18:29:44.202Z,9.37
2018-01-28T18:32:11.626Z,8.03
2018-01-28T18:34:39.054Z,10.50
2018-01-28T18:37:06.761Z,9.53
2018-01-28T18:39:34.206Z,8.93
2018-01-28T18:42:01.697Z,10.13
2018-01-28T18:44:29.175Z,11.43
2018-01-28T18:46:56.591Z,9.20
2018-01-28T18:49:24.076Z,10.67
2018-01-28T18:51:51.629Z,9.50
2018-01-28T18:54:19.063Z,9.47
2018-01-28T18:56:46.489Z,9.43
2018-01-28T18:59:14.001Z,10.53
2018-01-28T19:01:41.709Z,9.77
2018-01-28T19:04:09.223Z,9.73
2018-01-28T19:06:36.876Z,9.93
2018-01-28T19:09:04.449Z,11.30
2018-01-28T19:11:31.888Z,10.17
2018-01-28T19:13:59.314Z,10.80
2018-01-28T19:16:26.817Z,9.20
2018-01-28T19:18:54.277Z,9.10
2018-01-28T19:21:21.736Z,9.80
2018-01-28T19:23:49.172Z,10.57
2018-01-28T19:26:16.618Z,10.97
2018-01-28T19:28:44.045Z,9.30
2018-01-28T19:31:11.570Z,10.67
2018-01-28T19:33:39.656Z,10.57
2018-01-28T19:36:07.098Z,9.13
2018-01-28T19:38:34.734Z,10.00
2018-01-28T19:41:02.325Z,10.80
2018-01-28T19:43:29.753Z,10.23
2018-01-28T19:45:57.186Z,9.50
2018-01-28T19:48:24.609Z,8.70
2018-01-28T19:50:52.053Z,8.27
2018-01-28T19:53:19.707Z,8.90
2018-01-28T19:55:47.118Z,8.30
2018-01-28T19:58:14.594Z,8.10
2018-01-28T20:00:42.290Z,8.60
2018-01-28T20:03:09.720Z,7.60
2018-01-28T20:05:37.146Z,7.60
2018-01-28T20:08:04.665Z,7.73
2018-01-28T20:10:32.121Z,7.10
2018-01-28T20:12:59.549Z,8.70
2018-01-28T20:15:26.978Z,6.60
2018-01-28T20:17:55.322Z,6.73
2018-01-28T20:20:22.777Z,7.27
2018-01-28T20:22:50.234Z,6.53
2018-01-28T20:25:17.790Z,6.73
2018-01-28T20:27:45.553Z,6.13
2018-01-28T20:30:13.190Z,5.63
2018-01-28T20:32:40.685Z,6.50
2018-01-28T20:35:08.138Z,6.90
2018-01-28T20:37:35.593Z,6.13
2018-01-28T20:40:03.041Z,6.53
2018-01-28T20:42:30.626Z,7.13
2018-01-28T20:44:58.381Z,7.03
2018-01-28T20:47:26.144Z,5.70
2018-01-28T20:49:53.570Z,6.47
2018-01-28T20:52:21.097Z,7.60
2018-01-28T20:54:48.513Z,7.63
2018-01-28T20:57:15.945Z,6.53
2018-01-28T20:59:43.433Z,7.17
2018-01-28T21:02:10.889Z,6.73
2018-01-28T21:04:38.322Z,6.83
2018-01-28T21:07:05.740Z,6.73
2018-01-28T21:09:33.267Z,7.33
2018-01-28T21:12:00.722Z,7.50
2018-01-28T21:14:28.354Z,6.63
2018-01-28T21:16:55.845Z,7.00
2018-01-28T21:19:23.406Z,6.80
2018-01-28T21:21:51.038Z,6.77
2018-01-28T21:24:18.465Z,6.67
2018-01-28T21:26:46.697Z,6.40
2018-01-28T21:29:14.124Z,7.30
2018-01-28T21:31:41.614Z,7.10
2018-01-28T21:34:09.069Z,6.67
2018-01-28T21:36:36.705Z,5.57
2018-01-28T21:39:04.334Z,6.30
2018-01-28T21:41:33.291Z,6.73
2018-01-28T21:44:00.921Z,7.73
2018-01-28T21:46:28.514Z,6.43
2018-01-28T21:48:55.941Z,7.00
2018-01-28T21:51:23.371Z,6.80
2018-01-28T21:53:50.797Z,6.90
2018-01-28T21:56:18.343Z,7.33
2018-01-28T21:58:45.773Z,6.80
2018-01-28T22:01:13.258Z,6.30
2018-01-28T22:03:41.022Z,6.53
2018-01-28T22:06:08.663Z,7.50
2018-01-28T22:08:36.145Z,7.00
2018-01-28T22:11:03.605Z,7.00
2018-01-28T22:13:31.039Z,6.27
2018-01-28T22:15:58.489Z,5.53
2018-01-28T22:18:25.926Z,5.27
2018-01-28T22:20:54.332Z,5.60
2018-01-28T22:23:21.817Z,6.10
2018-01-28T22:25:49.390Z,6.03
2018-01-28T22:28:16.816Z,5.63
2018-01-28T22:30:44.242Z,6.30
2018-01-28T22:33:11.675Z,7.33
2018-01-28T22:35:39.097Z,5.80
2018-01-28T22:38:06.529Z,6.73
2018-01-28T22:40:34.017Z,7.53
2018-01-28T22:43:01.529Z,6.70
2018-01-28T22:45:29.038Z,6.77
2018-01-28T22:47:56.497Z,5.87
2018-01-28T22:50:23.921Z,6.87
2018-01-28T22:52:51.349Z,6.97
2018-01-28T22:55:19.790Z,6.60
2018-01-28T22:57:47.221Z,7.10
2018-01-28T23:00:14.650Z,5.27
2018-01-28T23:02:42.842Z,5.30
2018-01-28T23:05:10.442Z,5.30
2018-01-28T23:07:37.869Z,5.33
2018-01-28T23:10:05.502Z,4.90
2018-01-28T23:12:32.885Z,5.50
2018-01-28T23:15:00.374Z,5.60
2018-01-28T23:17:27.834Z,5.17
2018-01-28T23:19:55.466Z,5.50
2018-01-28T23:22:23.057Z,6.33
2018-01-28T23:24:50.689Z,5.80
2018-01-28T23:27:18.149Z,5.80
2018-01-28T23:29:45.637Z,6.90
2018-01-28T23:32:13.097Z,6.00
2018-01-28T23:34:40.522Z,5.93
2018-01-28T23:37:08.049Z,7.73
2018-01-28T23:39:35.470Z,6.13
2018-01-28T23:42:02.966Z,6.80
2018-01-28T23:44:31.309Z,6.03
2018-01-28T23:46:58.769Z,6.40
2018-01-28T23:49:26.321Z,6.33
2018-01-28T23:51:53.781Z,6.10
2018-01-28T23:54:21.220Z,6.83
2018-01-28T23:56:48.674Z,6.30
2018-01-28T23:59:16.081Z,6.10
